Time;durP1;ratioP1;P1;durP2;ratioP2;P2;SDS_P1;SDS_P2;PMS_P1;PMS_P2;Temp;Humidity;BMP_temperature;BMP_pressure;BME280_temperature;BME280_humidity;BME280_pressure;Samples;Min_cycle;Max_cycle;Signal;HPM_P1;HPM_P2
2023/04/09 00:02:12;;;;;;;19.23;14.20;;;6.70;97.50;;;;;;5093575;28;20220;-72
2023/04/09 00:04:48;;;;;;;17.63;13.88;;;6.60;97.40;;;;;;5093078;28;20185;-72
2023/04/09 00:07:19;;;;;;;19.42;14.48;;;6.70;97.30;;;;;;5093160;28;20276;-71
2023/04/09 00:09:48;;;;;;;19.17;14.13;;;6.60;97.30;;;;;;5093775;28;20189;-70
2023/04/09 00:12:22;;;;;;;23.35;14.93;;;6.60;97.50;;;;;;5094404;28;20200;-70
2023/04/09 00:14:49;;;;;;;19.45;14.75;;;6.60;97.60;;;;;;5093863;28;20189;-73
2023/04/09 00:17:21;;;;;;;18.85;14.60;;;6.60;97.60;;;;;;5094239;28;20192;-71
2023/04/09 00:19:48;;;;;;;21.55;13.48;;;6.60;97.70;;;;;;5094198;28;20195;-71
2023/04/09 00:22:18;;;;;;;18.00;13.93;;;6.60;97.60;;;;;;5094310;28;20248;-70
2023/04/09 00:24:50;;;;;;;18.95;14.68;;;6.60;97.50;;;;;;5093964;28;20592;-70
2023/04/09 00:27:20;;;;;;;20.05;16.80;;;6.60;97.40;;;;;;5094186;28;20639;-71
2023/04/09 00:29:48;;;;;;;23.17;14.85;;;6.60;97.30;;;;;;5093790;28;20189;-71
2023/04/09 00:32:20;;;;;;;19.15;15.48;;;6.60;97.40;;;;;;5094213;28;20189;-70
2023/04/09 00:34:52;;;;;;;17.88;14.00;;;6.60;97.40;;;;;;5093893;28;20185;-70
2023/04/09 00:37:24;;;;;;;23.58;16.70;;;6.50;97.10;;;;;;5093853;28;20189;-72
2023/04/09 00:39:56;;;;;;;19.48;15.32;;;6.50;97.30;;;;;;5094014;28;20189;-70
2023/04/09 00:42:23;;;;;;;22.92;16.30;;;6.60;97.30;;;;;;5093214;28;20229;-71
2023/04/09 00:44:52;;;;;;;20.88;15.50;;;6.60;97.20;;;;;;5093069;28;20242;-71
2023/04/09 00:47:24;;;;;;;21.00;15.18;;;6.60;97.30;;;;;;5094090;28;20589;-70
2023/04/09 00:49:51;;;;;;;21.25;15.30;;;6.60;97.40;;;;;;5093863;28;20551;-71
2023/04/09 00:52:24;;;;;;;19.55;14.88;;;6.60;97.30;;;;;;5093584;28;20272;-71
2023/04/09 00:54:58;;;;;;;18.38;14.18;;;6.60;97.40;;;;;;5093921;28;20193;-71
2023/04/09 00:57:31;;;;;;;20.67;15.35;;;6.60;97.50;;;;;;5093744;28;20196;-72
2023/04/09 01:00:00;;;;;;;19.40;14.07;;;6.60;97.20;;;;;;5092835;28;20252;-75
2023/04/09 01:02:27;;;;;;;18.73;14.00;;;6.60;97.10;;;;;;5093390;28;20560;-71
2023/04/09 01:04:54;;;;;;;19.73;15.05;;;6.60;97.00;;;;;;5093252;28;20189;-71
2023/04/09 01:07:31;;;;;;;18.00;14.00;;;6.60;96.90;;;;;;5093520;28;20276;-71
2023/04/09 01:10:09;;;;;;;18.92;14.55;;;6.50;96.90;;;;;;5093010;28;20184;-70
2023/04/09 01:12:45;;;;;;;19.75;14.63;;;6.50;97.00;;;;;;5093545;28;20238;-70
2023/04/09 01:15:18;;;;;;;22.13;15.80;;;6.50;97.20;;;;;;5092923;28;20192;-70
2023/04/09 01:17:50;;;;;;;20.95;15.55;;;6.40;97.20;;;;;;5093215;28;20705;-70
2023/04/09 01:20:29;;;;;;;18.15;14.18;;;6.40;97.40;;;;;;5093261;28;20209;-70
2023/04/09 01:23:07;;;;;;;19.02;15.02;;;6.40;97.40;;;;;;5092912;28;20678;-71
2023/04/09 01:25:53;;;;;;;22.40;15.18;;;6.40;97.50;;;;;;5092790;28;20197;-71
2023/04/09 01:28:30;;;;;;;18.85;14.27;;;6.30;97.30;;;;;;5093114;28;20192;-72
2023/04/09 01:31:00;;;;;;;21.30;14.45;;;6.30;97.10;;;;;;5092675;28;20655;-71
2023/04/09 01:33:30;;;;;;;18.98;15.00;;;6.30;97.20;;;;;;5092781;28;20655;-71
2023/04/09 01:36:04;;;;;;;20.55;15.18;;;6.30;97.40;;;;;;5093227;28;20262;-70
2023/04/09 01:38:37;;;;;;;17.65;13.38;;;6.30;97.70;;;;;;5092944;28;20243;-70
2023/04/09 01:41:06;;;;;;;18.92;15.07;;;6.30;97.90;;;;;;5092526;28;20192;-70
2023/04/09 01:43:41;;;;;;;22.73;16.02;;;6.30;98.00;;;;;;5092333;28;20286;-70
2023/04/09 01:46:13;;;;;;;19.10;15.43;;;6.30;98.10;;;;;;5092793;28;20189;-71
2023/04/09 01:48:41;;;;;;;19.83;15.38;;;6.40;98.20;;;;;;5092603;28;20197;-70
2023/04/09 01:51:08;;;;;;;19.58;14.30;;;6.30;98.10;;;;;;5092911;28;20280;-71
2023/04/09 01:53:37;;;;;;;19.73;14.57;;;6.40;98.20;;;;;;5092916;28;20199;-70
2023/04/09 01:56:04;;;;;;;24.17;16.65;;;6.40;98.50;;;;;;5092747;28;20250;-70
2023/04/09 01:58:46;;;;;;;19.52;15.35;;;6.40;98.40;;;;;;5092712;28;20520;-71
2023/04/09 02:01:20;;;;;;;19.92;15.00;;;6.30;98.30;;;;;;5092379;28;20599;-71
2023/04/09 02:03:54;;;;;;;18.00;14.25;;;6.40;98.40;;;;;;5092457;28;20686;-70
2023/04/09 02:06:29;;;;;;;20.70;14.43;;;6.40;98.50;;;;;;5092819;28;20196;-71
2023/04/09 02:09:02;;;;;;;19.05;13.95;;;6.30;98.50;;;;;;5092628;28;20193;-70
2023/04/09 02:11:31;;;;;;;20.83;14.68;;;6.30;98.50;;;;;;5092413;28;20213;-70
2023/04/09 02:14:12;;;;;;;20.77;15.18;;;6.30;98.60;;;;;;5092360;28;20231;-70
2023/04/09 02:16:41;;;;;;;21.38;16.23;;;6.40;98.70;;;;;;5092030;28;20246;-70
2023/04/09 02:19:09;;;;;;;20.10;15.05;;;6.40;98.60;;;;;;5092594;28;20185;-70
2023/04/09 02:21:36;;;;;;;18.98;15.27;;;6.40;98.10;;;;;;5092566;28;20611;-70
2023/04/09 02:24:08;;;;;;;17.98;13.30;;;6.40;98.10;;;;;;5092468;28;20225;-71
2023/04/09 02:26:37;;;;;;;17.48;14.32;;;6.30;97.90;;;;;;5092212;28;20193;-70
2023/04/09 02:29:04;;;;;;;20.38;15.32;;;6.30;97.80;;;;;;5092113;28;20254;-70
2023/04/09 02:31:32;;;;;;;20.30;14.43;;;6.30;97.90;;;;;;5092353;28;20254;-70
2023/04/09 02:34:05;;;;;;;17.23;14.45;;;6.30;97.70;;;;;;5092543;28;20190;-70
2023/04/09 02:36:32;;;;;;;17.70;12.10;;;6.30;97.80;;;;;;5092210;28;20510;-70
2023/04/09 02:39:02;;;;;;;20.27;13.20;;;6.30;97.80;;;;;;5092064;28;20224;-70
2023/04/09 02:41:34;;;;;;;17.60;14.40;;;6.20;97.80;;;;;;5092109;28;20193;-70
2023/04/09 02:44:06;;;;;;;18.05;13.30;;;6.30;98.00;;;;;;5092128;28;20217;-71
2023/04/09 02:46:35;;;;;;;15.82;13.20;;;6.30;97.90;;;;;;5092211;28;20192;-70
2023/04/09 02:49:02;;;;;;;15.77;12.18;;;6.30;97.90;;;;;;5091863;28;20728;-70
2023/04/09 02:51:31;;;;;;;17.83;12.32;;;6.20;97.80;;;;;;5091998;28;20557;-70
2023/04/09 02:53:58;;;;;;;16.38;12.90;;;6.20;97.70;;;;;;5092337;28;20189;-70
2023/04/09 02:56:32;;;;;;;18.42;11.80;;;6.20;97.60;;;;;;5091813;28;20192;-70
2023/04/09 02:59:00;;;;;;;14.38;12.07;;;6.20;97.50;;;;;;5091858;28;20229;-70
2023/04/09 03:01:31;;;;;;;18.88;12.13;;;6.20;97.50;;;;;;5091648;28;20250;-70
2023/04/09 03:04:00;;;;;;;16.13;12.32;;;6.20;97.60;;;;;;5091798;28;20213;-70
2023/04/09 03:06:32;;;;;;;15.63;10.57;;;6.10;97.60;;;;;;5092861;28;20223;-70
2023/04/09 03:09:04;;;;;;;20.23;11.98;;;6.10;97.60;;;;;;5095853;28;20550;-70
2023/04/09 03:11:31;;;;;;;13.13;10.52;;;6.10;97.60;;;;;;5095695;28;20271;-70
2023/04/09 03:13:59;;;;;;;14.05;10.20;;;6.10;97.40;;;;;;5095446;28;20189;-71
2023/04/09 03:16:28;;;;;;;15.15;12.20;;;6.10;97.50;;;;;;5095296;28;20243;-70
2023/04/09 03:19:01;;;;;;;15.35;11.15;;;6.10;97.50;;;;;;5095267;28;20197;-70
2023/04/09 03:21:33;;;;;;;12.40;8.80;;;6.10;97.50;;;;;;5095398;28;20196;-70
2023/04/09 03:24:01;;;;;;;12.88;9.38;;;6.10;96.90;;;;;;5095089;28;20267;-70
2023/04/09 03:26:35;;;;;;;11.20;8.30;;;6.10;96.70;;;;;;5095137;28;20610;-70
2023/04/09 03:29:06;;;;;;;11.35;9.15;;;6.10;96.80;;;;;;5095578;28;20188;-70
2023/04/09 03:31:33;;;;;;;12.20;8.95;;;6.00;96.70;;;;;;5095470;28;20273;-70
2023/04/09 03:34:02;;;;;;;13.07;9.68;;;6.00;96.90;;;;;;5095020;28;20193;-71
2023/04/09 03:36:34;;;;;;;13.52;9.75;;;6.00;97.00;;;;;;5095049;28;20264;-70
2023/04/09 03:39:01;;;;;;;14.45;9.65;;;6.00;97.00;;;;;;5094707;28;20189;-70
2023/04/09 03:41:36;;;;;;;12.65;9.50;;;6.00;97.00;;;;;;5095147;28;20200;-71
2023/04/09 03:44:08;;;;;;;11.18;9.00;;;6.00;96.90;;;;;;5094826;28;20556;-70
2023/04/09 03:46:36;;;;;;;12.48;9.18;;;5.90;96.70;;;;;;5094951;28;20246;-70
2023/04/09 03:49:04;;;;;;;13.95;9.85;;;5.90;96.80;;;;;;5094743;28;20275;-70
2023/04/09 03:51:32;;;;;;;10.73;8.60;;;5.90;96.70;;;;;;5094790;28;20231;-70
2023/04/09 03:54:03;;;;;;;12.70;8.50;;;5.90;96.80;;;;;;5094713;28;20229;-70
2023/04/09 03:56:39;;;;;;;10.27;8.75;;;5.90;96.90;;;;;;5094623;28;20276;-70
2023/04/09 03:59:11;;;;;;;11.60;9.27;;;5.90;97.10;;;;;;5094374;28;20289;-70
2023/04/09 04:01:38;;;;;;;11.77;8.90;;;5.80;97.10;;;;;;5094523;28;20200;-70
2023/04/09 04:04:06;;;;;;;12.70;9.48;;;5.80;97.30;;;;;;5094212;28;20229;-71
2023/04/09 04:06:35;;;;;;;13.82;10.10;;;5.80;97.50;;;;;;5094797;28;20249;-70
2023/04/09 04:09:05;;;;;;;15.95;11.95;;;5.80;97.60;;;;;;5094597;28;20243;-70
2023/04/09 04:11:37;;;;;;;15.73;12.18;;;5.80;97.40;;;;;;5094906;28;20258;-70
2023/04/09 04:14:06;;;;;;;14.00;9.93;;;5.80;97.20;;;;;;5094348;28;20280;-71
2023/04/09 04:16:40;;;;;;;15.30;11.45;;;5.80;97.30;;;;;;5094270;28;20636;-70
2023/04/09 04:19:09;;;;;;;16.05;11.75;;;5.80;97.60;;;;;;5094674;28;20550;-71
2023/04/09 04:21:36;;;;;;;15.02;10.63;;;5.80;97.70;;;;;;5094153;28;20193;-70
2023/04/09 04:24:06;;;;;;;17.40;13.60;;;5.80;97.80;;;;;;5094456;28;20224;-70
2023/04/09 04:26:33;;;;;;;16.80;10.57;;;5.80;97.80;;;;;;5094602;28;20211;-70
2023/04/09 04:29:05;;;;;;;15.70;12.52;;;5.70;97.90;;;;;;5093896;28;20326;-70
2023/04/09 04:31:34;;;;;;;17.40;13.27;;;5.70;97.80;;;;;;5093835;28;20185;-70
2023/04/09 04:34:05;;;;;;;16.70;13.10;;;5.70;97.80;;;;;;5094024;28;20197;-70
2023/04/09 04:36:34;;;;;;;16.70;11.75;;;5.70;97.90;;;;;;5094274;28;20224;-71
2023/04/09 04:39:15;;;;;;;14.88;12.25;;;5.70;98.00;;;;;;5094169;28;20197;-71
2023/04/09 04:41:46;;;;;;;16.85;13.85;;;5.70;98.30;;;;;;5093836;28;20189;-71
2023/04/09 04:44:13;;;;;;;14.77;11.73;;;5.70;98.30;;;;;;5093574;28;20686;-70
2023/04/09 04:46:40;;;;;;;18.48;12.10;;;5.70;98.30;;;;;;5093616;28;20287;-70
2023/04/09 04:49:12;;;;;;;15.68;12.10;;;5.70;98.40;;;;;;5093657;28;20592;-70
2023/04/09 04:51:46;;;;;;;14.63;11.52;;;5.70;98.50;;;;;;5094035;28;20280;-70
2023/04/09 04:54:14;;;;;;;17.50;12.68;;;5.70;98.40;;;;;;5093686;28;20275;-70
2023/04/09 04:56:43;;;;;;;18.25;12.75;;;5.70;98.30;;;;;;5093348;28;20708;-70
2023/04/09 04:59:15;;;;;;;15.23;11.80;;;5.70;98.20;;;;;;5093010;28;20225;-70
2023/04/09 05:01:47;;;;;;;17.08;10.90;;;5.70;98.50;;;;;;5093738;28;20692;-70
2023/04/09 05:04:19;;;;;;;14.27;11.48;;;5.70;98.60;;;;;;5093357;28;20229;-70
2023/04/09 05:06:47;;;;;;;14.52;11.27;;;5.80;98.60;;;;;;5093614;28;20231;-70
2023/04/09 05:09:16;;;;;;;13.63;10.05;;;5.80;98.40;;;;;;5093662;28;20691;-70
2023/04/09 05:11:46;;;;;;;16.23;11.57;;;5.80;98.40;;;;;;5093620;28;20238;-70
2023/04/09 05:14:15;;;;;;;13.60;10.23;;;5.80;98.40;;;;;;5093264;28;20192;-70
2023/04/09 05:16:47;;;;;;;11.32;8.98;;;5.80;98.40;;;;;;5093100;28;20544;-71
2023/04/09 05:19:14;;;;;;;11.85;9.18;;;5.90;98.50;;;;;;5093338;28;20220;-70
2023/04/09 05:21:43;;;;;;;14.80;9.80;;;6.00;98.40;;;;;;5093040;28;20555;-69
2023/04/09 05:24:11;;;;;;;19.17;10.60;;;6.00;98.30;;;;;;5092999;28;20286;-70
2023/04/09 05:26:38;;;;;;;16.05;11.50;;;6.10;98.10;;;;;;5093428;28;20193;-70
2023/04/09 05:29:06;;;;;;;17.98;12.45;;;6.10;97.90;;;;;;5092772;28;20197;-71
2023/04/09 05:31:32;;;;;;;18.27;12.18;;;6.20;98.10;;;;;;5092947;28;20225;-70
2023/04/09 05:34:00;;;;;;;13.98;11.15;;;6.30;97.90;;;;;;5093222;28;20242;-71
2023/04/09 05:36:27;;;;;;;17.80;12.00;;;6.30;97.70;;;;;;5093055;28;20193;-70
2023/04/09 05:39:03;;;;;;;17.60;11.55;;;6.40;97.80;;;;;;5093133;28;20189;-72
2023/04/09 05:41:32;;;;;;;20.13;13.73;;;6.50;97.70;;;;;;5092852;28;20193;-71
2023/04/09 05:44:04;;;;;;;20.15;13.48;;;6.60;97.50;;;;;;5093027;28;20729;-72
2023/04/09 05:46:35;;;;;;;19.48;13.82;;;6.80;96.90;;;;;;5092631;28;20197;-70
2023/04/09 05:49:10;;;;;;;20.33;13.57;;;6.80;96.60;;;;;;5092921;28;20666;-70
2023/04/09 05:51:42;;;;;;;18.73;12.35;;;6.90;96.40;;;;;;5093040;28;20227;-71
2023/04/09 05:54:11;;;;;;;19.55;13.93;;;7.00;95.90;;;;;;5092911;28;20664;-70
2023/04/09 05:56:40;;;;;;;22.42;15.00;;;7.00;95.70;;;;;;5092546;28;20197;-70
2023/04/09 05:59:09;;;;;;;22.23;14.32;;;7.00;95.80;;;;;;5092580;28;20577;-71
2023/04/09 06:01:37;;;;;;;18.23;12.85;;;7.10;95.70;;;;;;5092819;28;20703;-70
2023/04/09 06:04:04;;;;;;;20.85;13.15;;;7.30;95.60;;;;;;5092501;28;20309;-70
2023/04/09 06:06:37;;;;;;;17.23;13.00;;;7.30;94.80;;;;;;5092522;28;20195;-71
2023/04/09 06:09:07;;;;;;;20.08;13.45;;;7.40;94.30;;;;;;5092342;28;20224;-70
2023/04/09 06:11:41;;;;;;;18.90;13.25;;;7.40;94.20;;;;;;5092581;28;20188;-70
2023/04/09 06:14:11;;;;;;;19.40;14.45;;;7.30;94.20;;;;;;5092562;28;20292;-70
2023/04/09 06:16:39;;;;;;;19.75;14.60;;;7.30;94.30;;;;;;5092745;28;20185;-70
2023/04/09 06:19:06;;;;;;;19.13;12.52;;;7.30;93.80;;;;;;5092321;28;20193;-70
2023/04/09 06:21:35;;;;;;;19.20;14.32;;;7.40;93.40;;;;;;5092287;28;20547;-71
2023/04/09 06:24:07;;;;;;;24.00;14.45;;;7.50;93.20;;;;;;5047963;28;20221;-69
2023/04/09 06:26:35;;;;;;;20.23;13.95;;;7.60;92.60;;;;;;5080074;28;20201;-71
2023/04/09 06:29:04;;;;;;;18.25;13.50;;;7.60;92.50;;;;;;5059722;28;20448;-70
2023/04/09 06:31:32;;;;;;;15.80;12.55;;;7.80;92.60;;;;;;5090042;28;20243;-69
2023/04/09 06:34:01;;;;;;;18.17;13.30;;;7.80;91.80;;;;;;5089490;28;20628;-69
2023/04/09 06:36:29;;;;;;;19.02;13.43;;;7.70;91.20;;;;;;5090727;28;20292;-69
2023/04/09 06:39:05;;;;;;;18.33;13.65;;;7.70;91.00;;;;;;5090529;28;20213;-71
2023/04/09 06:41:37;;;;;;;16.20;12.90;;;7.70;91.20;;;;;;5091712;28;20675;-69
2023/04/09 06:44:07;;;;;;;21.55;13.63;;;7.70;92.20;;;;;;5091673;28;20235;-68
2023/04/09 06:46:36;;;;;;;16.08;12.13;;;7.90;92.10;;;;;;5098431;28;20189;-69
2023/04/09 06:49:04;;;;;;;18.15;13.25;;;8.10;92.20;;;;;;5102864;28;20245;-69
2023/04/09 06:51:32;;;;;;;15.35;12.48;;;8.40;90.60;;;;;;5099564;28;20272;-69
2023/04/09 06:53:59;;;;;;;16.50;12.02;;;8.50;90.50;;;;;;5099540;28;20197;-70
2023/04/09 06:56:37;;;;;;;16.33;13.27;;;8.60;90.70;;;;;;5100266;28;20190;-73
2023/04/09 06:59:07;;;;;;;13.27;10.82;;;8.60;90.30;;;;;;5097933;28;20602;-70
2023/04/09 07:01:36;;;;;;;15.52;12.05;;;8.60;87.90;;;;;;5094329;28;20208;-70
2023/04/09 07:04:04;;;;;;;15.65;10.48;;;8.70;84.40;;;;;;5101762;28;20312;-70
2023/04/09 07:06:32;;;;;;;15.55;10.75;;;8.60;83.80;;;;;;5099138;28;20635;-72
2023/04/09 07:09:04;;;;;;;14.38;11.10;;;8.80;84.60;;;;;;5098156;28;20181;-70
2023/04/09 07:11:32;;;;;;;13.10;11.00;;;9.10;84.90;;;;;;5100847;28;20215;-69
2023/04/09 07:14:01;;;;;;;16.33;11.55;;;9.40;82.00;;;;;;5097719;28;20574;-69
2023/04/09 07:16:30;;;;;;;13.68;9.93;;;9.60;81.50;;;;;;5101504;28;20238;-71
2023/04/09 07:19:00;;;;;;;12.27;10.38;;;9.80;81.40;;;;;;5099136;28;20205;-70
2023/04/09 07:21:32;;;;;;;13.40;10.77;;;10.20;77.70;;;;;;5099810;28;20185;-70
2023/04/09 07:24:01;;;;;;;12.32;9.15;;;10.40;78.60;;;;;;5096958;28;20564;-71
2023/04/09 07:26:32;;;;;;;13.45;10.98;;;10.70;78.30;;;;;;5099363;28;20636;-70
2023/04/09 07:29:00;;;;;;;13.15;10.48;;;11.10;74.50;;;;;;5098855;28;20703;-71
2023/04/09 07:31:37;;;;;;;13.93;10.55;;;11.40;73.30;;;;;;5097441;28;20185;-70
2023/04/09 07:34:04;;;;;;;13.93;9.35;;;11.90;70.20;;;;;;5097844;28;20202;-70
2023/04/09 07:36:36;;;;;;;12.07;9.25;;;12.30;67.80;;;;;;5101270;28;20192;-74
2023/04/09 07:39:03;;;;;;;11.67;9.30;;;13.40;62.70;;;;;;5095119;28;20234;-70
2023/04/09 07:41:30;;;;;;;12.03;10.30;;;15.80;57.20;;;;;;5100636;28;20447;-71
2023/04/09 07:44:02;;;;;;;10.47;9.17;;;19.00;49.50;;;;;;5097321;28;20511;-71
2023/04/09 07:46:29;;;;;;;10.60;9.17;;;21.90;42.80;;;;;;5098145;28;20826;-71
2023/04/09 07:48:58;;;;;;;8.53;7.33;;;24.10;38.30;;;;;;5100247;28;20476;-71
2023/04/09 07:51:25;;;;;;;10.37;8.30;;;25.90;30.60;;;;;;5099933;28;20478;-72
2023/04/09 07:53:56;;;;;;;8.97;8.00;;;27.50;28.50;;;;;;5097851;28;20495;-73
2023/04/09 07:56:25;;;;;;;7.80;7.00;;;29.10;27.60;;;;;;5096665;28;20500;-72
2023/04/09 07:58:55;;;;;;;8.00;7.20;;;30.50;23.40;;;;;;5100016;28;20463;-72
2023/04/09 08:01:23;;;;;;;8.67;7.77;;;31.70;22.40;;;;;;5097902;28;20948;-72
2023/04/09 08:03:50;;;;;;;11.50;8.93;;;30.50;20.70;;;;;;5094998;28;20440;-72
2023/04/09 08:06:23;;;;;;;9.03;8.13;;;28.10;20.90;;;;;;5100953;28;20945;-71
2023/04/09 08:08:52;;;;;;;8.00;7.20;;;25.70;23.60;;;;;;5099083;28;20480;-74
2023/04/09 08:11:24;;;;;;;7.77;6.97;;;24.40;25.50;;;;;;5096947;28;20481;-71
2023/04/09 08:13:51;;;;;;;8.43;7.57;;;25.60;26.00;;;;;;5099708;28;20526;-72
2023/04/09 08:16:23;;;;;;;9.37;8.40;;;26.60;26.20;;;;;;5097663;28;20525;-72
2023/04/09 08:18:57;;;;;;;8.73;7.83;;;29.30;25.10;;;;;;5094496;28;20873;-72
2023/04/09 08:21:28;;;;;;;8.67;7.77;;;30.30;21.50;;;;;;5098751;28;20435;-72
2023/04/09 08:24:00;;;;;;;7.47;6.67;;;28.30;21.50;;;;;;5100549;28;20439;-72
2023/04/09 08:26:43;;;;;;;8.53;7.67;;;28.20;23.80;;;;;;5096739;28;20439;-72
2023/04/09 08:29:12;;;;;;;7.80;7.00;;;31.50;21.50;;;;;;5098489;28;20440;-72
2023/04/09 08:31:43;;;;;;;8.50;7.70;;;31.00;18.50;;;;;;5098624;28;20841;-72
2023/04/09 08:34:14;;;;;;;7.73;7.03;;;28.40;20.20;;;;;;5100417;28;20804;-71
2023/04/09 08:36:46;;;;;;;8.00;6.97;;;26.00;22.40;;;;;;5091397;28;21034;-71
2023/04/09 08:39:16;;;;;;;7.90;6.90;;;25.90;22.80;;;;;;5097408;28;20422;-72
2023/04/09 08:41:43;;;;;;;8.40;7.50;;;27.80;22.90;;;;;;5100781;28;20489;-72
2023/04/09 08:44:11;;;;;;;7.80;7.07;;;29.70;20.60;;;;;;5096368;28;20864;-72
2023/04/09 08:46:37;;;;;;;8.50;7.60;;;29.20;20.20;;;;;;5096284;28;20443;-72
2023/04/09 08:49:04;;;;;;;6.77;6.03;;;28.30;19.50;;;;;;5098253;28;20486;-72
2023/04/09 08:51:31;;;;;;;5.93;5.10;;;27.70;20.80;;;;;;5096946;28;20442;-72
2023/04/09 08:54:01;;;;;;;6.60;5.90;;;29.30;19.90;;;;;;5098130;28;20431;-73
2023/04/09 08:56:29;;;;;;;6.83;5.83;;;31.30;18.30;;;;;;5099408;28;20600;-72
2023/04/09 08:58:57;;;;;;;8.23;6.87;;;32.90;17.30;;;;;;5097598;28;20515;-72
2023/04/09 09:01:30;;;;;;;8.17;7.37;;;34.50;16.00;;;;;;5097424;28;20453;-73
2023/04/09 09:03:59;;;;;;;5.43;4.83;;;35.70;15.40;;;;;;5099661;28;20430;-72
2023/04/09 09:06:28;;;;;;;6.70;5.97;;;36.10;14.50;;;;;;5096344;28;20486;-72
2023/04/09 09:09:07;;;;;;;6.63;5.93;;;36.90;13.80;;;;;;5100384;28;20487;-73
2023/04/09 09:11:40;;;;;;;6.70;6.00;;;37.10;12.60;;;;;;5095838;28;20461;-72
2023/04/09 09:14:09;;;;;;;6.03;5.47;;;37.00;11.60;;;;;;5099602;28;20434;-73
2023/04/09 09:16:41;;;;;;;5.80;5.23;;;35.70;12.00;;;;;;5093387;28;20492;-72
2023/04/09 09:19:30;;;;;;;5.73;5.23;;;35.00;13.70;;;;;;5098182;28;20447;-72
2023/04/09 09:21:58;;;;;;;6.10;5.50;;;36.30;13.30;;;;;;5096469;28;20793;-73
2023/04/09 09:24:26;;;;;;;6.50;5.90;;;37.10;12.30;;;;;;5097640;28;20444;-73
2023/04/09 09:26:54;;;;;;;6.10;5.50;;;37.60;12.40;;;;;;5096158;28;20477;-74
2023/04/09 09:29:22;;;;;;;7.13;6.43;;;37.50;11.60;;;;;;5096834;28;20455;-72
2023/04/09 09:31:54;;;;;;;7.70;7.00;;;36.10;12.40;;;;;;5099949;28;20437;-72
2023/04/09 09:34:24;;;;;;;6.10;5.50;;;36.30;14.20;;;;;;5096057;28;20803;-72
2023/04/09 09:36:52;;;;;;;6.70;6.00;;;37.40;12.90;;;;;;5096383;28;20518;-73
2023/04/09 09:39:19;;;;;;;6.90;6.30;;;39.00;12.90;;;;;;5099566;28;20484;-73
2023/04/09 09:42:06;;;;;;;7.83;7.07;;;39.90;11.70;;;;;;5096409;28;20439;-74
2023/04/09 09:44:34;;;;;;;7.47;6.77;;;41.20;12.00;;;;;;5098666;28;20430;-73
2023/04/09 09:47:04;;;;;;;6.83;6.13;;;42.00;10.50;;;;;;5100024;28;20716;-73
2023/04/09 09:49:31;;;;;;;7.93;7.23;;;42.20;10.00;;;;;;5095918;28;20867;-72
2023/04/09 09:52:01;;;;;;;7.23;6.60;;;42.40;10.30;;;;;;5099128;28;20446;-72
2023/04/09 09:54:33;;;;;;;7.33;6.63;;;43.00;9.90;;;;;;5096172;28;20439;-73
2023/04/09 09:57:06;;;;;;;7.20;6.60;;;43.50;8.70;;;;;;5095957;28;20925;-72
2023/04/09 09:59:41;;;;;;;7.03;6.43;;;43.80;8.50;;;;;;5095695;28;20561;-73
2023/04/09 10:02:18;;;;;;;5.87;5.27;;;44.10;8.90;;;;;;5095289;28;20438;-74
2023/04/09 10:04:45;;;;;;;6.13;5.57;;;44.40;7.70;;;;;;5099331;28;20793;-73
2023/04/09 10:07:14;;;;;;;6.80;6.20;;;44.10;8.10;;;;;;5096882;28;20998;-72
2023/04/09 10:09:45;;;;;;;7.40;6.70;;;42.10;8.40;;;;;;5091849;28;20554;-70
2023/04/09 10:12:14;;;;;;;6.13;5.53;;;42.00;8.90;;;;;;5098014;28;20531;-71
2023/04/09 10:14:42;;;;;;;5.67;5.17;;;42.40;8.70;;;;;;5095378;28;20496;-75
2023/04/09 10:17:10;;;;;;;5.30;4.80;;;42.70;8.20;;;;;;5101213;28;20442;-72
2023/04/09 10:19:46;;;;;;;7.10;6.50;;;42.90;7.90;;;;;;5103073;28;20499;-72
2023/04/09 10:22:18;;;;;;;7.17;6.47;;;43.10;8.40;;;;;;5103510;28;20451;-75
2023/04/09 10:24:47;;;;;;;6.33;5.73;;;43.30;8.50;;;;;;5100771;28;20980;-73
2023/04/09 10:27:17;;;;;;;6.87;6.27;;;42.90;7.70;;;;;;5099129;28;20786;-73
2023/04/09 10:29:45;;;;;;;6.77;6.17;;;42.40;8.30;;;;;;5103165;28;20445;-73
2023/04/09 10:32:13;;;;;;;6.10;5.50;;;42.40;8.30;;;;;;5094973;28;20435;-73
2023/04/09 10:34:42;;;;;;;6.87;6.27;;;42.60;8.90;;;;;;5103170;28;20499;-73
2023/04/09 10:37:13;;;;;;;6.27;5.67;;;43.00;8.80;;;;;;5099593;28;20445;-72
2023/04/09 10:39:46;;;;;;;6.40;5.80;;;42.80;7.70;;;;;;5099490;28;20427;-72
2023/04/09 10:42:19;;;;;;;6.20;5.60;;;42.40;8.90;;;;;;5102681;28;20437;-73
2023/04/09 10:44:46;;;;;;;6.10;5.60;;;42.70;9.10;;;;;;5095126;28;20450;-73
2023/04/09 10:47:33;;;;;;;5.80;5.30;;;40.60;8.20;;;;;;5103142;28;20433;-72
2023/04/09 10:50:15;;;;;;;6.07;5.47;;;37.90;9.40;;;;;;5098771;28;20856;-73
2023/04/09 10:52:43;;;;;;;6.00;5.40;;;34.70;9.90;;;;;;5099279;28;20529;-72
2023/04/09 10:55:10;;;;;;;6.90;5.67;;;34.30;12.70;;;;;;5102985;28;20550;-72
2023/04/09 10:57:39;;;;;;;6.90;6.20;;;34.30;11.40;;;;;;5099010;28;20867;-72
2023/04/09 11:00:07;;;;;;;6.27;5.37;;;32.50;12.40;;;;;;5098543;28;20477;-71
2023/04/09 11:03:04;;;;;;;6.80;5.33;;;30.80;12.90;;;;;;5102949;28;20541;-72
2023/04/09 11:05:34;;;;;;;5.90;4.70;;;28.80;14.00;;;;;;5095501;28;20474;-72
2023/04/09 11:08:05;;;;;;;5.90;5.30;;;26.80;15.70;;;;;;5101960;28;20442;-72
2023/04/09 11:10:33;;;;;;;6.53;5.50;;;25.40;17.00;;;;;;5102820;28;20769;-72
2023/04/09 11:13:03;;;;;;;6.87;6.10;;;24.10;18.50;;;;;;5102143;28;20462;-71
2023/04/09 11:15:31;;;;;;;6.47;5.20;;;22.80;20.00;;;;;;5099016;28;20474;-71
2023/04/09 11:17:58;;;;;;;5.73;4.80;;;22.50;22.20;;;;;;5102225;28;20454;-71
2023/04/09 11:20:26;;;;;;;6.00;4.80;;;25.20;20.20;;;;;;5100103;28;20945;-72
2023/04/09 11:22:55;;;;;;;7.00;5.13;;;28.60;17.90;;;;;;5098878;28;20447;-72
2023/04/09 11:25:24;;;;;;;6.43;5.07;;;31.10;16.00;;;;;;5100618;28;20553;-74
2023/04/09 11:27:51;;;;;;;6.50;5.33;;;32.60;15.30;;;;;;5101369;28;20437;-73
2023/04/09 11:30:20;;;;;;;7.00;6.20;;;34.00;14.20;;;;;;5098580;28;20840;-72
2023/04/09 11:32:48;;;;;;;6.57;5.97;;;33.60;13.30;;;;;;5099824;28;20805;-74
2023/04/09 11:35:17;;;;;;;6.77;6.07;;;33.10;13.80;;;;;;5100506;28;20921;-72
2023/04/09 11:37:45;;;;;;;7.07;6.37;;;32.30;13.60;;;;;;5102350;28;20434;-72
2023/04/09 11:40:16;;;;;;;6.47;5.53;;;31.40;14.60;;;;;;5098113;28;20516;-74
2023/04/09 11:42:44;;;;;;;6.30;5.70;;;30.40;15.40;;;;;;5098727;28;20551;-72
2023/04/09 11:45:12;;;;;;;6.27;5.53;;;29.60;14.40;;;;;;5097567;28;20450;-72
2023/04/09 11:47:41;;;;;;;7.37;6.10;;;27.90;15.10;;;;;;5101073;28;20485;-72
2023/04/09 11:50:10;;;;;;;7.63;6.00;;;26.00;17.20;;;;;;5095002;28;20439;-71
2023/04/09 11:52:38;;;;;;;6.37;5.77;;;24.50;18.80;;;;;;5100829;28;21286;-71
2023/04/09 11:55:07;;;;;;;8.57;6.73;;;23.20;19.90;;;;;;5101756;28;20441;-71
2023/04/09 11:57:42;;;;;;;10.40;7.00;;;22.10;20.90;;;;;;5097200;28;20447;-71
2023/04/09 12:00:12;;;;;;;6.77;5.60;;;21.00;22.10;;;;;;5099581;28;20573;-71
2023/04/09 12:02:43;;;;;;;8.40;6.47;;;20.10;23.10;;;;;;5101326;28;20442;-72
2023/04/09 12:05:12;;;;;;;8.90;7.40;;;19.60;24.10;;;;;;5098083;28;20823;-71
2023/04/09 12:07:40;;;;;;;7.33;5.37;;;19.20;24.90;;;;;;5102661;28;20430;-72
2023/04/09 12:10:10;;;;;;;7.07;5.60;;;18.80;25.50;;;;;;5099161;28;20522;-71
2023/04/09 12:12:41;;;;;;;5.53;4.20;;;18.30;25.80;;;;;;5096824;28;20439;-71
2023/04/09 12:15:19;;;;;;;6.23;5.03;;;17.70;25.10;;;;;;5100159;28;20447;-71
2023/04/09 12:17:49;;;;;;;7.40;6.30;;;17.20;26.00;;;;;;5098466;28;20470;-71
2023/04/09 12:20:28;;;;;;;8.30;5.83;;;16.80;27.30;;;;;;5097899;28;20438;-71
2023/04/09 12:22:55;;;;;;;6.33;5.17;;;16.60;28.30;;;;;;5101590;28;20863;-71
2023/04/09 12:25:22;;;;;;;7.43;5.40;;;17.00;29.50;;;;;;5099762;28;20520;-71
2023/04/09 12:27:49;;;;;;;8.93;5.07;;;17.50;28.00;;;;;;5096428;28;20442;-71
2023/04/09 12:30:16;;;;;;;6.67;5.17;;;17.80;27.10;;;;;;5101753;28;20460;-71
2023/04/09 12:32:45;;;;;;;6.50;4.83;;;18.10;28.20;;;;;;5101429;28;20944;-71
2023/04/09 12:35:15;;;;;;;6.67;5.40;;;18.80;29.50;;;;;;5099166;28;20465;-71
2023/04/09 12:37:42;;;;;;;5.97;4.70;;;19.60;28.10;;;;;;5100724;28;20442;-72
2023/04/09 12:40:12;;;;;;;6.10;5.30;;;20.10;25.80;;;;;;5100322;28;20434;-72
2023/04/09 12:42:42;;;;;;;7.03;4.80;;;20.20;25.30;;;;;;5096909;28;20439;-71
2023/04/09 12:45:11;;;;;;;6.03;5.07;;;20.00;24.40;;;;;;5100285;28;20842;-71
2023/04/09 12:47:39;;;;;;;6.30;4.77;;;19.80;25.10;;;;;;5097835;28;20540;-72
2023/04/09 12:50:10;;;;;;;7.07;5.10;;;19.60;25.90;;;;;;5097988;28;20427;-72
2023/04/09 12:52:39;;;;;;;6.20;4.77;;;19.20;25.50;;;;;;5100096;28;20430;-72
2023/04/09 12:55:08;;;;;;;7.77;4.97;;;18.80;25.80;;;;;;5097062;28;20467;-72
2023/04/09 12:57:36;;;;;;;7.60;5.97;;;18.30;25.60;;;;;;5097153;28;20519;-71
2023/04/09 13:00:10;;;;;;;7.77;5.40;;;17.90;26.00;;;;;;5098190;28;20470;-71